createdAt,value
2022-08-11T00:01:55.874Z,4.10
2022-08-11T00:04:24.791Z,3.96
2022-08-11T00:06:52.667Z,3.94
2022-08-11T00:09:31.782Z,3.85
2022-08-11T00:12:12.983Z,3.63
2022-08-11T00:14:39.670Z,4.02
2022-08-11T00:17:07.994Z,4.00
2022-08-11T00:20:13.183Z,4.25
2022-08-11T00:22:24.960Z,4.24
2022-08-11T00:24:56.003Z,3.63
2022-08-11T00:27:32.106Z,3.61
2022-08-11T00:29:58.846Z,3.66
2022-08-11T00:32:27.340Z,3.60
2022-08-11T00:35:52.469Z,3.74
2022-08-11T00:37:49.301Z,3.72
2022-08-11T00:40:24.211Z,3.70
2022-08-11T00:43:01.919Z,3.80
2022-08-11T00:45:31.369Z,4.03
2022-08-11T00:48:11.969Z,3.94
2022-08-11T00:51:09.909Z,3.91
2022-08-11T00:53:46.837Z,3.88
2022-08-11T00:56:31.999Z,3.96
2022-08-11T00:59:34.450Z,4.00
2022-08-11T01:02:18.939Z,3.90
2022-08-11T01:05:16.507Z,4.21
2022-08-11T01:11:17.037Z,4.04
2022-08-11T01:14:06.244Z,4.33
2022-08-11T01:16:44.767Z,4.51
2022-08-11T01:19:31.254Z,4.27
2022-08-11T01:22:21.546Z,4.00
2022-08-11T01:25:07.011Z,3.62
2022-08-11T01:27:52.499Z,3.93
2022-08-11T01:30:22.095Z,4.09
2022-08-11T01:33:07.378Z,4.13
2022-08-11T01:35:50.136Z,3.97
2022-08-11T01:38:35.344Z,4.30
2022-08-11T01:41:14.081Z,3.86
2022-08-11T01:44:05.495Z,3.78
2022-08-11T01:46:46.827Z,4.09
2022-08-11T01:50:06.425Z,4.38
2022-08-11T01:52:18.805Z,4.21
2022-08-11T01:55:11.814Z,4.10
2022-08-11T01:57:45.255Z,4.08
2022-08-11T02:00:19.370Z,3.97
2022-08-11T02:02:50.051Z,3.95
2022-08-11T02:05:20.359Z,4.17
2022-08-11T02:08:02.354Z,4.00
2022-08-11T02:10:57.994Z,4.02
2022-08-11T02:13:44.739Z,4.37
2022-08-11T02:16:13.474Z,3.97
2022-08-11T02:19:05.816Z,4.31
2022-08-11T02:22:00.603Z,4.20
2022-08-11T02:24:34.106Z,4.25
2022-08-11T02:27:06.786Z,4.64
2022-08-11T02:29:40.936Z,4.46
2022-08-11T02:32:45.010Z,4.24
2022-08-11T02:35:19.956Z,4.20
2022-08-11T02:38:01.574Z,4.31
2022-08-11T02:40:41.228Z,4.09
2022-08-11T02:43:15.514Z,4.10
2022-08-11T02:45:54.756Z,4.24
2022-08-11T02:48:40.006Z,4.20
2022-08-11T02:51:21.924Z,4.21
2022-08-11T02:54:14.777Z,4.41
2022-08-11T02:56:57.477Z,4.79
2022-08-11T02:59:42.798Z,4.56
2022-08-11T03:02:15.431Z,4.46
2022-08-11T03:05:00.476Z,4.64
2022-08-11T03:07:46.128Z,4.51
2022-08-11T03:10:39.763Z,4.47
2022-08-11T03:13:39.312Z,4.59
2022-08-11T03:16:30.464Z,4.62
2022-08-11T03:19:08.695Z,4.89
2022-08-11T03:22:01.368Z,4.56
2022-08-11T03:24:36.055Z,4.70
2022-08-11T03:27:22.878Z,4.91
2022-08-11T03:30:09.700Z,4.76
2022-08-11T03:33:08.457Z,4.78
2022-08-11T03:35:41.270Z,5.14
2022-08-11T03:38:15.140Z,4.94
2022-08-11T03:42:01.281Z,4.84
2022-08-11T03:44:20.217Z,4.78
2022-08-11T03:46:52.886Z,4.96
2022-08-11T03:49:25.344Z,4.38
2022-08-11T03:51:56.487Z,4.44
2022-08-11T03:54:36.175Z,4.45
2022-08-11T03:57:23.103Z,4.53
2022-08-11T04:00:10.198Z,4.42
2022-08-11T04:02:36.837Z,4.41
2022-08-11T04:05:12.669Z,4.78
2022-08-11T04:07:39.155Z,4.96
2022-08-11T04:10:46.188Z,5.06
2022-08-11T04:13:12.758Z,5.04
2022-08-11T04:16:11.094Z,4.89
2022-08-11T04:18:57.609Z,5.44
2022-08-11T04:21:42.581Z,5.07
2022-08-11T04:24:35.404Z,5.20
2022-08-11T04:27:14.881Z,5.26
2022-08-11T04:30:05.923Z,5.63
2022-08-11T04:33:03.171Z,5.30
2022-08-11T04:35:51.133Z,5.48
2022-08-11T04:38:36.824Z,5.07
2022-08-11T04:41:16.388Z,5.19
2022-08-11T04:44:02.668Z,5.52
2022-08-11T04:46:48.254Z,4.96
2022-08-11T04:49:42.350Z,4.90
2022-08-11T04:52:46.481Z,4.93
2022-08-11T04:55:40.556Z,4.76
2022-08-11T04:58:45.289Z,4.88
2022-08-11T05:01:42.653Z,5.01
2022-08-11T05:04:46.858Z,5.29
2022-08-11T05:07:42.249Z,5.17
2022-08-11T05:10:25.098Z,5.41
2022-08-11T05:12:51.840Z,5.47
2022-08-11T05:15:44.665Z,5.80
2022-08-11T05:18:38.347Z,5.23
2022-08-11T05:21:45.239Z,5.43
2022-08-11T05:24:42.397Z,4.96
2022-08-11T05:27:29.081Z,4.99
2022-08-11T05:30:14.061Z,4.85
2022-08-11T05:33:02.477Z,5.22
2022-08-11T05:36:00.492Z,5.35
2022-08-11T05:38:46.133Z,9.96
2022-08-11T05:41:32.690Z,9.75
2022-08-11T05:44:22.310Z,8.32
2022-08-11T05:47:08.155Z,7.52
2022-08-11T05:49:54.397Z,6.54
2022-08-11T05:52:42.121Z,6.06
2022-08-11T05:55:29.367Z,5.50
2022-08-11T05:57:59.300Z,5.39
2022-08-11T06:00:26.788Z,5.10
2022-08-11T06:02:57.355Z,4.73
2022-08-11T06:05:25.114Z,4.67
2022-08-11T06:07:57.173Z,4.81
2022-08-11T06:10:30.891Z,4.80
2022-08-11T06:12:58.368Z,4.77
2022-08-11T06:15:26.061Z,4.47
2022-08-11T06:17:54.947Z,4.64
2022-08-11T06:20:24.090Z,4.61
2022-08-11T06:23:03.845Z,4.47
2022-08-11T06:25:32.963Z,4.48
2022-08-11T06:28:00.920Z,4.23
2022-08-11T06:30:39.256Z,4.79
2022-08-11T06:33:14.909Z,32.99
2022-08-11T06:35:55.331Z,19.35
2022-08-11T06:38:21.819Z,13.32
2022-08-11T06:41:14.912Z,10.10
2022-08-11T06:44:05.109Z,6.35
2022-08-11T06:46:33.503Z,5.97
2022-08-11T06:49:03.500Z,4.90
2022-08-11T06:51:32.511Z,4.54
2022-08-11T06:54:04.119Z,5.00
2022-08-11T06:57:29.421Z,4.95
2022-08-11T07:00:04.216Z,4.73
2022-08-11T07:02:34.434Z,4.63
2022-08-11T07:05:09.560Z,4.71
2022-08-11T07:08:34.322Z,4.50
2022-08-11T07:11:18.783Z,4.50
2022-08-11T07:14:05.606Z,4.61
2022-08-11T07:16:34.811Z,4.34
2022-08-11T07:19:27.304Z,4.14
2022-08-11T07:22:15.329Z,3.61
2022-08-11T07:25:07.926Z,4.18
2022-08-11T07:28:15.935Z,4.18
2022-08-11T07:30:43.656Z,3.97
2022-08-11T07:34:05.578Z,3.75
2022-08-11T07:36:02.676Z,3.82
2022-08-11T07:38:47.442Z,3.61
2022-08-11T07:41:16.017Z,3.64
2022-08-11T07:43:44.925Z,3.89
2022-08-11T07:46:30.772Z,4.17
2022-08-11T07:49:17.644Z,3.77
2022-08-11T07:52:03.701Z,3.85
2022-08-11T07:54:33.384Z,3.69
2022-08-11T07:57:07.414Z,3.38
2022-08-11T08:00:00.708Z,3.67
2022-08-11T08:02:50.767Z,3.61
2022-08-11T08:05:37.394Z,3.95
2022-08-11T08:08:23.997Z,3.68
2022-08-11T08:11:10.201Z,3.64
2022-08-11T08:13:56.401Z,3.33
2022-08-11T08:16:42.129Z,3.04
2022-08-11T08:19:12.177Z,3.34
2022-08-11T08:21:39.581Z,3.20
2022-08-11T08:24:07.723Z,3.27
2022-08-11T08:26:53.477Z,3.42
2022-08-11T08:29:40.411Z,3.60
2022-08-11T08:32:11.332Z,3.21
2022-08-11T08:34:40.387Z,3.21
2022-08-11T08:37:15.720Z,3.22
2022-08-11T08:39:55.018Z,2.86
2022-08-11T08:42:26.757Z,3.12
2022-08-11T08:44:58.964Z,3.28
2022-08-11T08:47:38.780Z,2.85
2022-08-11T08:50:16.494Z,3.06
2022-08-11T08:52:47.884Z,3.00
2022-08-11T08:55:19.095Z,2.74
2022-08-11T08:57:48.485Z,2.70
2022-08-11T09:00:19.358Z,2.88
2022-08-11T09:02:50.197Z,3.00
2022-08-11T09:05:21.420Z,3.14
2022-08-11T09:07:51.104Z,3.42
2022-08-11T09:10:19.496Z,2.84
2022-08-11T09:12:47.023Z,3.07
2022-08-11T09:15:15.200Z,2.88
2022-08-11T09:17:47.989Z,2.92
2022-08-11T09:20:20.153Z,2.94
2022-08-11T09:26:19.094Z,2.75
2022-08-11T09:28:46.725Z,2.92
2022-08-11T09:31:14.651Z,2.95
2022-08-11T09:33:43.503Z,3.09
2022-08-11T09:36:30.856Z,2.87
2022-08-11T09:39:17.464Z,2.90
2022-08-11T09:42:01.041Z,2.99
2022-08-11T09:44:49.865Z,2.73
2022-08-11T09:47:25.182Z,3.08
2022-08-11T09:49:55.066Z,2.97
2022-08-11T09:52:24.497Z,2.90
2022-08-11T09:54:53.148Z,2.75
2022-08-11T09:57:39.784Z,2.90
2022-08-11T10:00:12.372Z,2.93
2022-08-11T10:02:45.967Z,3.02
2022-08-11T10:05:33.678Z,3.05
2022-08-11T10:08:01.431Z,3.15
2022-08-11T10:10:29.833Z,3.16
2022-08-11T10:13:00.159Z,2.97
2022-08-11T10:15:38.345Z,2.99
2022-08-11T10:18:23.855Z,3.20
2022-08-11T10:20:52.192Z,3.20
2022-08-11T10:24:00.949Z,3.07
2022-08-11T10:26:46.082Z,3.12
2022-08-11T10:29:36.897Z,3.32
2022-08-11T10:32:24.743Z,3.14
2022-08-11T10:34:59.970Z,3.02
2022-08-11T10:38:06.093Z,2.85
2022-08-11T10:40:22.535Z,3.14
2022-08-11T10:43:03.835Z,3.42
2022-08-11T10:45:50.116Z,3.01
2022-08-11T10:48:21.360Z,2.98
2022-08-11T10:51:08.284Z,3.57
2022-08-11T10:53:54.706Z,3.19
2022-08-11T10:56:40.973Z,3.39
2022-08-11T10:59:09.485Z,3.22
2022-08-11T11:01:42.467Z,3.49
2022-08-11T11:04:34.181Z,3.13
2022-08-11T11:07:00.786Z,3.03
2022-08-11T11:09:29.993Z,3.38
2022-08-11T11:12:18.231Z,3.37
2022-08-11T11:15:06.770Z,6.57
2022-08-11T11:17:57.306Z,6.16
2022-08-11T11:20:36.054Z,3.62
2022-08-11T11:23:25.486Z,3.76
2022-08-11T11:26:07.180Z,3.41
2022-08-11T11:28:56.937Z,3.47
2022-08-11T11:31:26.517Z,3.42
2022-08-11T11:34:12.965Z,3.55
2022-08-11T11:36:45.875Z,3.38
2022-08-11T11:39:13.042Z,3.33
2022-08-11T11:41:41.921Z,3.35
2022-08-11T11:44:12.923Z,3.38
2022-08-11T11:46:41.396Z,3.32
2022-08-11T11:49:15.875Z,3.43
2022-08-11T11:51:44.487Z,3.41
2022-08-11T11:54:18.601Z,3.43
2022-08-11T11:56:46.191Z,3.37
2022-08-11T11:59:33.213Z,3.52
2022-08-11T12:02:01.159Z,3.43
2022-08-11T12:04:41.876Z,3.30
2022-08-11T12:07:29.134Z,3.44
2022-08-11T12:09:57.282Z,3.31
2022-08-11T12:12:43.670Z,3.40
2022-08-11T12:15:11.728Z,3.39
2022-08-11T12:17:39.119Z,3.56
2022-08-11T12:20:32.135Z,3.49
2022-08-11T12:23:14.737Z,3.52
2022-08-11T12:26:25.433Z,3.48
2022-08-11T12:28:49.678Z,3.42
2022-08-11T12:31:16.588Z,3.31
2022-08-11T12:33:43.884Z,3.56
2022-08-11T12:36:16.397Z,3.43
2022-08-11T12:38:51.361Z,3.56
2022-08-11T12:41:39.442Z,3.42
2022-08-11T12:44:28.302Z,3.19
2022-08-11T12:46:57.881Z,3.53
2022-08-11T12:49:45.805Z,3.50
2022-08-11T12:52:19.146Z,3.75
2022-08-11T12:54:45.753Z,3.59
2022-08-11T12:57:41.293Z,3.65
2022-08-11T13:00:27.972Z,3.56
2022-08-11T13:03:14.564Z,3.41
2022-08-11T13:05:44.505Z,3.25
2022-08-11T13:08:15.161Z,3.33
2022-08-11T13:11:01.525Z,3.54
2022-08-11T13:13:53.916Z,3.30
2022-08-11T13:16:17.853Z,3.09
2022-08-11T13:18:45.246Z,3.52
2022-08-11T13:21:20.060Z,3.41
2022-08-11T13:24:00.342Z,3.35
2022-08-11T13:26:48.511Z,3.30
2022-08-11T13:29:24.009Z,3.28
2022-08-11T13:31:52.126Z,3.27
2022-08-11T13:34:20.149Z,3.62
2022-08-11T13:36:49.307Z,4.53
2022-08-11T13:39:16.811Z,5.13
2022-08-11T13:41:45.302Z,4.81
2022-08-11T13:44:15.861Z,5.57
2022-08-11T13:46:45.282Z,5.51
2022-08-11T13:49:16.291Z,5.25
2022-08-11T13:51:44.214Z,5.18
2022-08-11T13:54:22.635Z,5.14
2022-08-11T13:56:52.936Z,4.39
2022-08-11T13:59:22.986Z,4.12
2022-08-11T14:02:20.843Z,3.77
2022-08-11T14:04:44.135Z,3.92
2022-08-11T14:07:12.153Z,4.86
2022-08-11T14:09:42.658Z,5.50
2022-08-11T14:12:32.465Z,5.25
2022-08-11T14:15:08.354Z,8.45
2022-08-11T14:17:48.635Z,6.51
2022-08-11T14:20:39.548Z,7.55
2022-08-11T14:23:06.080Z,6.91
2022-08-11T14:26:01.139Z,6.12
2022-08-11T14:28:30.021Z,6.39
2022-08-11T14:31:01.862Z,7.06
2022-08-11T14:33:38.058Z,5.77
2022-08-11T14:36:18.703Z,4.95
2022-08-11T14:38:46.008Z,5.32
2022-08-11T14:41:31.539Z,4.68
2022-08-11T14:44:18.148Z,4.18
2022-08-11T14:47:24.225Z,4.33
2022-08-11T14:50:04.931Z,4.19
2022-08-11T14:52:39.647Z,4.73
2022-08-11T14:55:27.057Z,4.31
2022-08-11T14:58:04.979Z,3.78
2022-08-11T15:00:34.421Z,3.94
2022-08-11T15:03:12.917Z,3.54
2022-08-11T15:05:56.636Z,3.69
2022-08-11T15:08:45.518Z,3.95
2022-08-11T15:11:32.007Z,3.20
2022-08-11T15:14:00.747Z,3.54
2022-08-11T15:16:46.204Z,5.04
2022-08-11T15:19:13.754Z,4.60
2022-08-11T15:21:59.296Z,4.78
2022-08-11T15:24:26.537Z,3.98
2022-08-11T15:27:19.328Z,4.53
2022-08-11T15:30:06.622Z,3.87
2022-08-11T15:32:54.263Z,3.58
2022-08-11T15:35:39.869Z,4.27
2022-08-11T15:38:11.754Z,3.75
2022-08-11T15:40:59.745Z,6.17
2022-08-11T15:43:47.125Z,4.94
2022-08-11T15:46:20.231Z,5.62
2022-08-11T15:48:59.397Z,5.11
2022-08-11T15:51:37.405Z,7.75
2022-08-11T15:54:09.429Z,10.78
2022-08-11T15:56:38.992Z,9.48
2022-08-11T15:59:42.488Z,6.67
2022-08-11T16:02:32.174Z,4.44
2022-08-11T16:05:00.112Z,3.74
2022-08-11T16:07:29.906Z,3.55
2022-08-11T16:10:05.082Z,3.16
2022-08-11T16:12:35.614Z,3.73
2022-08-11T16:15:26.600Z,3.37
2022-08-11T16:17:59.262Z,3.13
2022-08-11T16:20:28.271Z,3.22
2022-08-11T16:23:01.927Z,3.07
2022-08-11T16:27:01.507Z,2.90
2022-08-11T16:28:20.755Z,3.30
2022-08-11T16:30:49.410Z,2.80
2022-08-11T16:33:48.468Z,2.58
2022-08-11T16:36:31.904Z,2.64
2022-08-11T16:39:00.087Z,2.73
2022-08-11T16:41:48.689Z,2.55
2022-08-11T16:44:37.676Z,2.65
2022-08-11T16:47:12.145Z,2.27
2022-08-11T16:49:47.160Z,2.37
2022-08-11T16:52:19.785Z,2.57
2022-08-11T16:54:47.715Z,2.63
2022-08-11T16:57:40.382Z,2.52
2022-08-11T17:00:12.471Z,2.49
2022-08-11T17:03:23.727Z,2.70
2022-08-11T17:06:12.744Z,2.73
2022-08-11T17:09:02.105Z,3.15
2022-08-11T17:11:50.622Z,2.93
2022-08-11T17:14:35.634Z,2.99
2022-08-11T17:17:04.970Z,2.86
2022-08-11T17:20:42.317Z,2.73
2022-08-11T17:22:38.945Z,3.06
2022-08-11T17:25:08.408Z,3.16
2022-08-11T17:27:37.015Z,2.88
2022-08-11T17:30:07.956Z,3.06
2022-08-11T17:32:56.070Z,3.09
2022-08-11T17:35:33.700Z,3.09
2022-08-11T17:38:04.015Z,3.00
2022-08-11T17:40:32.708Z,3.20
2022-08-11T17:43:19.179Z,3.27
2022-08-11T17:46:08.360Z,2.84
2022-08-11T17:48:37.950Z,2.98
2022-08-11T17:51:37.769Z,3.18
2022-08-11T17:54:25.384Z,3.24
2022-08-11T17:57:20.513Z,3.24
2022-08-11T17:59:53.122Z,3.36
2022-08-11T18:02:42.248Z,3.18
2022-08-11T18:05:13.550Z,3.22
2022-08-11T18:08:02.452Z,3.22
2022-08-11T18:10:49.983Z,3.07
2022-08-11T18:13:38.227Z,3.19
2022-08-11T18:16:23.757Z,3.26
2022-08-11T18:19:08.774Z,3.14
2022-08-11T18:22:12.858Z,3.42
2022-08-11T18:25:06.966Z,3.42
2022-08-11T18:27:53.978Z,3.26
2022-08-11T18:30:39.451Z,3.51
2022-08-11T18:33:50.451Z,3.42
2022-08-11T18:36:34.868Z,3.21
2022-08-11T18:39:22.413Z,3.30
2022-08-11T18:42:09.966Z,3.19
2022-08-11T18:44:56.481Z,3.01
2022-08-11T18:47:44.696Z,3.09
2022-08-11T18:50:39.384Z,2.99
2022-08-11T18:53:28.232Z,2.85
2022-08-11T18:56:15.448Z,2.84
2022-08-11T18:59:05.761Z,2.76
2022-08-11T19:01:55.437Z,2.80
2022-08-11T19:04:41.466Z,2.90
2022-08-11T19:07:30.384Z,3.03
2022-08-11T19:10:17.590Z,2.66
2022-08-11T19:13:05.603Z,2.88
2022-08-11T19:15:52.295Z,2.93
2022-08-11T19:18:40.293Z,3.05
2022-08-11T19:21:26.793Z,3.16
2022-08-11T19:24:15.656Z,2.98
2022-08-11T19:27:02.628Z,3.17
2022-08-11T19:30:12.201Z,3.15
2022-08-11T19:32:56.879Z,3.23
2022-08-11T19:35:43.184Z,3.15
2022-08-11T19:38:29.661Z,2.84
2022-08-11T19:41:17.923Z,2.93
2022-08-11T19:44:22.722Z,2.92
2022-08-11T19:47:09.957Z,2.76
2022-08-11T19:49:57.806Z,2.82
2022-08-11T19:52:43.589Z,2.92
2022-08-11T19:55:29.461Z,2.91
2022-08-11T19:58:15.422Z,2.95
2022-08-11T20:01:02.405Z,2.99
2022-08-11T20:03:47.636Z,2.99
2022-08-11T20:06:35.576Z,2.84
2022-08-11T20:09:24.052Z,2.85
2022-08-11T20:12:13.181Z,2.87
2022-08-11T20:15:00.939Z,2.72
2022-08-11T20:17:50.512Z,2.78
2022-08-11T20:20:36.847Z,3.07
2022-08-11T20:23:24.775Z,2.64
2022-08-11T20:26:30.196Z,2.74
2022-08-11T20:29:18.134Z,2.63
2022-08-11T20:32:06.536Z,2.71
2022-08-11T20:34:56.659Z,2.59
2022-08-11T20:37:47.658Z,2.78
2022-08-11T20:40:37.170Z,2.61
2022-08-11T20:44:08.224Z,2.88
2022-08-11T20:46:31.897Z,2.91
2022-08-11T20:49:20.344Z,2.70
2022-08-11T20:52:06.028Z,3.23
2022-08-11T20:54:52.800Z,3.09
2022-08-11T20:58:04.168Z,3.07
2022-08-11T21:00:45.571Z,3.18
2022-08-11T21:03:36.272Z,2.95
2022-08-11T21:06:33.019Z,2.97
2022-08-11T21:09:21.453Z,2.94
2022-08-11T21:12:14.313Z,2.93
2022-08-11T21:14:59.483Z,2.94
2022-08-11T21:18:00.721Z,3.07
2022-08-11T21:20:58.099Z,3.15
2022-08-11T21:23:46.545Z,3.15
2022-08-11T21:26:35.622Z,3.03
2022-08-11T21:29:24.243Z,3.07
2022-08-11T21:32:11.666Z,2.87
2022-08-11T21:34:58.829Z,3.11
2022-08-11T21:37:44.621Z,3.38
2022-08-11T21:40:38.085Z,3.07
2022-08-11T21:43:24.968Z,3.32
2022-08-11T21:46:12.507Z,3.09
2022-08-11T21:48:59.412Z,2.98
2022-08-11T21:51:44.782Z,3.15
2022-08-11T21:54:30.885Z,3.13
2022-08-11T21:57:17.084Z,3.23
2022-08-11T22:00:08.481Z,3.23
2022-08-11T22:02:55.019Z,3.35
2022-08-11T22:05:40.715Z,3.22
2022-08-11T22:08:26.686Z,3.22
2022-08-11T22:11:12.372Z,3.35
2022-08-11T22:14:01.239Z,3.63
2022-08-11T22:16:52.892Z,3.60
2022-08-11T22:19:39.853Z,3.47
2022-08-11T22:22:26.385Z,3.73
2022-08-11T22:25:16.661Z,3.33
2022-08-11T22:28:04.219Z,3.26
2022-08-11T22:30:49.445Z,3.45
2022-08-11T22:33:35.386Z,3.41
2022-08-11T22:36:23.776Z,3.55
2022-08-11T22:39:09.076Z,3.31
2022-08-11T22:41:55.065Z,3.82
2022-08-11T22:44:40.338Z,3.53
2022-08-11T22:47:34.925Z,3.34
2022-08-11T22:50:26.249Z,3.53
2022-08-11T22:53:12.457Z,3.51
2022-08-11T22:55:59.834Z,3.46
2022-08-11T22:58:44.933Z,3.45
2022-08-11T23:01:34.009Z,3.45
2022-08-11T23:04:20.413Z,3.48
2022-08-11T23:07:06.051Z,3.51
2022-08-11T23:09:51.492Z,3.43
2022-08-11T23:12:37.045Z,3.33
2022-08-11T23:15:22.661Z,3.64
2022-08-11T23:18:08.019Z,3.34
2022-08-11T23:20:54.738Z,3.47
2022-08-11T23:23:42.440Z,3.48
2022-08-11T23:26:29.386Z,3.49
2022-08-11T23:29:16.223Z,3.50
2022-08-11T23:32:02.725Z,3.84
2022-08-11T23:35:03.732Z,3.50
2022-08-11T23:37:50.786Z,3.52
2022-08-11T23:40:36.198Z,3.59
2022-08-11T23:43:21.808Z,3.67
2022-08-11T23:46:06.772Z,3.56
2022-08-11T23:48:52.300Z,3.38
2022-08-11T23:51:40.876Z,3.56
2022-08-11T23:54:27.896Z,3.46
2022-08-11T23:57:13.415Z,3.53
2022-08-11T23:59:59.038Z,3.67
